createdAt,value
2022-12-23T00:00:59.463Z,12.40
2022-12-23T00:03:28.221Z,11.93
2022-12-23T00:05:56.299Z,11.90
2022-12-23T00:08:26.140Z,13.09
2022-12-23T00:10:54.987Z,14.12
2022-12-23T00:13:41.541Z,14.48
2022-12-23T00:16:12.463Z,13.71
2022-12-23T00:18:40.890Z,12.92
2022-12-23T00:21:11.767Z,12.32
2022-12-23T00:23:42.374Z,11.87
2022-12-23T00:26:28.791Z,11.84
2022-12-23T00:28:58.615Z,13.12
2022-12-23T00:31:26.667Z,14.12
2022-12-23T00:33:54.592Z,14.60
2022-12-23T00:36:24.887Z,13.96
2022-12-23T00:39:12.102Z,13.16
2022-12-23T00:41:58.988Z,12.47
2022-12-23T00:44:26.817Z,11.93
2022-12-23T00:46:54.592Z,11.82
2022-12-23T00:49:41.578Z,12.84
2022-12-23T00:52:15.463Z,13.98
2022-12-23T00:54:43.348Z,14.48
2022-12-23T00:57:11.594Z,13.85
2022-12-23T00:59:39.462Z,13.09
2022-12-23T01:02:26.159Z,12.52
2022-12-23T01:05:12.904Z,12.09
2022-12-23T01:07:42.500Z,12.17
2022-12-23T01:10:10.672Z,13.37
2022-12-23T01:12:38.508Z,14.35
2022-12-23T01:15:07.177Z,14.51
2022-12-23T01:17:34.936Z,13.79
2022-12-23T01:20:03.083Z,13.13
2022-12-23T01:22:30.872Z,12.62
2022-12-23T01:24:58.566Z,12.22
2022-12-23T01:27:26.390Z,11.87
2022-12-23T01:29:54.150Z,11.54
2022-12-23T01:32:21.882Z,11.25
2022-12-23T01:34:49.682Z,10.98
2022-12-23T01:37:17.898Z,11.03
2022-12-23T01:39:45.826Z,12.30
2022-12-23T01:42:37.555Z,13.45
2022-12-23T01:45:08.347Z,13.80
2022-12-23T01:47:55.842Z,13.12
2022-12-23T01:50:28.772Z,12.37
2022-12-23T01:53:18.157Z,11.86
2022-12-23T01:56:00.400Z,11.44
2022-12-23T01:58:30.696Z,11.11
2022-12-23T02:01:17.703Z,10.85
2022-12-23T02:03:46.856Z,10.95
2022-12-23T02:06:39.347Z,12.18
2022-12-23T02:09:18.496Z,13.39
2022-12-23T02:12:28.230Z,13.74
2022-12-23T02:15:52.181Z,12.82
2022-12-23T02:18:41.571Z,11.96
2022-12-23T02:21:16.591Z,11.47
2022-12-23T02:24:03.110Z,11.13
2022-12-23T02:26:39.713Z,10.83
2022-12-23T02:29:29.471Z,10.55
2022-12-23T02:32:19.196Z,10.29
2022-12-23T02:35:35.458Z,10.08
2022-12-23T02:38:22.421Z,10.43
2022-12-23T02:40:59.032Z,11.96
2022-12-23T02:43:57.071Z,12.73
2022-12-23T02:46:37.013Z,12.09
2022-12-23T02:49:15.546Z,11.41
2022-12-23T02:51:50.519Z,10.92
2022-12-23T02:54:25.032Z,10.58
2022-12-23T02:56:54.181Z,10.28
2022-12-23T02:59:25.649Z,10.32
2022-12-23T03:01:54.264Z,11.54
2022-12-23T03:04:22.192Z,12.68
2022-12-23T03:06:52.192Z,13.18
2022-12-23T03:09:58.762Z,12.57
2022-12-23T03:13:08.039Z,11.72
2022-12-23T03:15:38.640Z,11.11
2022-12-23T03:18:29.747Z,10.74
2022-12-23T03:21:05.381Z,10.38
2022-12-23T03:23:37.871Z,10.13
2022-12-23T03:26:11.684Z,10.25
2022-12-23T03:28:59.171Z,11.52
2022-12-23T03:35:53.063Z,12.73
2022-12-23T03:38:22.030Z,12.01
2022-12-23T03:40:53.817Z,11.46
2022-12-23T03:43:35.321Z,11.04
2022-12-23T03:46:12.993Z,10.70
2022-12-23T03:48:45.657Z,10.40
2022-12-23T03:51:26.319Z,10.16
2022-12-23T03:54:01.256Z,9.93
2022-12-23T03:56:32.324Z,10.10
2022-12-23T03:59:03.658Z,11.46
2022-12-23T04:01:49.939Z,12.65
2022-12-23T04:04:32.969Z,13.16
2022-12-23T04:07:09.393Z,12.48
2022-12-23T04:09:37.806Z,11.81
2022-12-23T04:12:05.896Z,11.33
2022-12-23T04:14:34.500Z,10.98
2022-12-23T04:17:02.792Z,10.71
2022-12-23T04:19:30.524Z,10.48
2022-12-23T04:21:58.295Z,10.28
2022-12-23T04:24:26.040Z,10.35
2022-12-23T04:26:53.730Z,11.46
2022-12-23T04:29:21.566Z,12.71
2022-12-23T04:31:49.354Z,13.39
2022-12-23T04:34:17.170Z,12.91
2022-12-23T04:36:45.016Z,12.25
2022-12-23T04:39:12.753Z,11.76
2022-12-23T04:41:40.518Z,11.38
2022-12-23T04:44:08.996Z,11.09
2022-12-23T04:46:37.099Z,10.83
2022-12-23T04:49:05.345Z,10.60
2022-12-23T04:51:33.083Z,10.59
2022-12-23T04:54:00.835Z,11.62
2022-12-23T04:56:28.616Z,12.71
2022-12-23T04:58:56.380Z,13.32
2022-12-23T05:01:24.336Z,12.85
2022-12-23T05:03:52.212Z,12.18
2022-12-23T05:06:19.962Z,11.66
2022-12-23T05:08:47.687Z,11.29
2022-12-23T05:11:15.400Z,10.97
2022-12-23T05:13:43.362Z,10.70
2022-12-23T05:16:11.301Z,10.66
2022-12-23T05:18:39.085Z,11.64
2022-12-23T05:21:06.882Z,12.76
2022-12-23T05:23:34.838Z,13.44
2022-12-23T05:26:02.552Z,12.94
2022-12-23T05:28:30.566Z,12.25
2022-12-23T05:31:06.331Z,11.70
2022-12-23T05:33:34.875Z,11.22
2022-12-23T05:36:03.150Z,10.87
2022-12-23T05:38:30.996Z,10.60
2022-12-23T05:40:59.055Z,10.63
2022-12-23T05:43:26.796Z,11.85
2022-12-23T05:45:55.013Z,13.13
2022-12-23T05:48:22.934Z,13.70
2022-12-23T05:50:51.691Z,13.08
2022-12-23T05:53:20.567Z,12.36
2022-12-23T05:55:48.516Z,11.80
2022-12-23T05:58:16.959Z,11.39
2022-12-23T06:00:44.758Z,11.04
2022-12-23T06:03:12.844Z,10.75
2022-12-23T06:05:43.409Z,10.78
2022-12-23T06:08:11.296Z,12.04
2022-12-23T06:10:39.046Z,13.25
2022-12-23T06:13:06.805Z,13.82
2022-12-23T06:15:34.658Z,13.23
2022-12-23T06:18:02.449Z,12.51
2022-12-23T06:20:30.262Z,11.97
2022-12-23T06:22:58.058Z,11.57
2022-12-23T06:25:25.793Z,11.24
2022-12-23T06:27:53.543Z,10.96
2022-12-23T06:30:21.236Z,11.00
2022-12-23T06:32:48.976Z,12.18
2022-12-23T06:35:16.756Z,13.20
2022-12-23T06:37:44.798Z,13.76
2022-12-23T06:40:13.064Z,13.23
2022-12-23T06:42:40.857Z,12.51
2022-12-23T06:45:09.703Z,11.96
2022-12-23T06:47:37.592Z,11.56
2022-12-23T06:50:06.281Z,11.23
2022-12-23T06:52:34.017Z,10.93
2022-12-23T06:55:01.802Z,10.99
2022-12-23T06:57:29.505Z,12.16
2022-12-23T06:59:57.317Z,13.28
2022-12-23T07:02:25.169Z,13.84
2022-12-23T07:04:53.062Z,13.31
2022-12-23T07:07:20.868Z,12.61
2022-12-23T07:09:48.556Z,12.09
2022-12-23T07:12:16.617Z,11.70
2022-12-23T07:14:44.350Z,11.40
2022-12-23T07:17:12.173Z,11.37
2022-12-23T07:19:41.714Z,12.50
2022-12-23T07:22:10.361Z,13.68
2022-12-23T07:24:38.386Z,14.21
2022-12-23T07:27:06.121Z,13.66
2022-12-23T07:29:33.903Z,12.94
2022-12-23T07:32:02.550Z,12.41
2022-12-23T07:34:30.556Z,12.01
2022-12-23T07:36:58.328Z,11.69
2022-12-23T07:39:26.138Z,11.78
2022-12-23T07:42:09.323Z,13.06
2022-12-23T07:44:41.643Z,14.25
2022-12-23T07:47:10.037Z,14.62
2022-12-23T07:49:37.781Z,14.05
2022-12-23T07:52:05.565Z,13.35
2022-12-23T07:54:33.407Z,12.82
2022-12-23T07:57:01.309Z,12.43
2022-12-23T07:59:29.228Z,12.11
2022-12-23T08:01:57.109Z,12.15
2022-12-23T08:04:25.069Z,13.41
2022-12-23T08:06:53.028Z,14.64
2022-12-23T08:09:20.794Z,15.18
2022-12-23T08:11:48.553Z,14.55
2022-12-23T08:14:16.293Z,13.77
2022-12-23T08:16:44.592Z,13.15
2022-12-23T08:19:12.389Z,12.67
2022-12-23T08:21:40.077Z,12.29
2022-12-23T08:24:08.010Z,12.28
2022-12-23T08:26:35.740Z,13.53
2022-12-23T08:29:03.704Z,14.66
2022-12-23T08:31:34.406Z,15.05
2022-12-23T08:34:02.240Z,14.43
2022-12-23T08:36:32.368Z,13.74
2022-12-23T08:39:02.908Z,13.22
2022-12-23T08:41:33.505Z,12.83
2022-12-23T08:44:01.293Z,12.51
2022-12-23T08:46:29.379Z,12.53
2022-12-23T08:48:57.556Z,13.60
2022-12-23T08:51:26.223Z,14.60
2022-12-23T08:54:00.891Z,15.10
2022-12-23T08:56:33.053Z,14.57
2022-12-23T08:59:01.347Z,13.88
2022-12-23T09:01:31.577Z,13.39
2022-12-23T09:04:03.619Z,13.02
2022-12-23T09:06:49.651Z,12.69
2022-12-23T09:09:17.538Z,12.38
2022-12-23T09:11:45.292Z,12.40
2022-12-23T09:14:14.139Z,13.44
2022-12-23T09:16:44.439Z,14.52
2022-12-23T09:19:12.226Z,15.26
2022-12-23T09:21:39.961Z,15.51
2022-12-23T09:24:07.908Z,14.89
2022-12-23T09:26:35.694Z,14.20
2022-12-23T09:29:03.532Z,13.65
2022-12-23T09:31:36.536Z,13.22
2022-12-23T09:34:06.083Z,12.84
2022-12-23T09:36:34.095Z,12.75
2022-12-23T09:39:02.116Z,13.63
2022-12-23T09:41:52.428Z,14.57
2022-12-23T09:44:29.378Z,15.13
2022-12-23T09:47:02.642Z,15.24
2022-12-23T09:49:30.996Z,14.55
2022-12-23T09:52:02.267Z,13.81
2022-12-23T09:54:36.377Z,13.24
2022-12-23T09:57:16.732Z,12.79
2022-12-23T09:59:56.677Z,12.71
2022-12-23T10:02:32.299Z,13.85
2022-12-23T10:05:13.271Z,14.78
2022-12-23T10:07:47.771Z,15.49
2022-12-23T10:10:29.164Z,15.76
2022-12-23T10:12:58.674Z,15.00
2022-12-23T10:15:35.247Z,14.23
2022-12-23T10:18:10.638Z,13.62
2022-12-23T10:20:46.378Z,13.14
2022-12-23T10:23:18.272Z,13.06
2022-12-23T10:25:52.681Z,14.11
2022-12-23T10:28:20.509Z,14.89
2022-12-23T10:34:22.740Z,15.48
2022-12-23T10:36:59.811Z,14.56
2022-12-23T10:39:44.290Z,13.78
2022-12-23T10:42:11.967Z,13.57
2022-12-23T10:44:54.146Z,14.41
2022-12-23T10:47:49.148Z,15.09
2022-12-23T10:50:40.153Z,15.28
2022-12-23T10:53:11.264Z,14.47
2022-12-23T10:55:39.318Z,13.70
2022-12-23T10:58:13.663Z,13.36
2022-12-23T11:00:45.717Z,14.10
2022-12-23T11:03:19.557Z,14.82
2022-12-23T11:05:50.453Z,15.18
2022-12-23T11:08:19.935Z,15.49
2022-12-23T11:10:48.319Z,15.32
2022-12-23T11:13:37.060Z,14.47
2022-12-23T11:20:44.521Z,14.46
2022-12-23T11:23:30.761Z,14.93
2022-12-23T11:26:07.119Z,15.43
2022-12-23T11:28:48.712Z,15.83
2022-12-23T11:31:26.017Z,15.67
2022-12-23T11:34:05.688Z,14.73
2022-12-23T11:36:34.285Z,13.95
2022-12-23T11:39:15.637Z,14.07
2022-12-23T11:41:48.423Z,14.77
2022-12-23T11:44:44.277Z,15.17
2022-12-23T11:47:35.094Z,15.42
2022-12-23T11:50:27.784Z,15.66
2022-12-23T11:53:01.759Z,15.71
2022-12-23T11:55:32.890Z,15.86
2022-12-23T11:58:01.717Z,15.90
2022-12-23T12:00:40.362Z,15.16
2022-12-23T12:03:16.594Z,14.33
2022-12-23T12:05:54.417Z,14.58
2022-12-23T12:08:25.538Z,15.07
2022-12-23T12:10:53.944Z,15.42
2022-12-23T12:13:29.982Z,15.64
2022-12-23T12:16:23.910Z,15.81
2022-12-23T12:18:55.815Z,16.16
2022-12-23T12:21:28.899Z,16.07
2022-12-23T12:24:18.228Z,15.41
2022-12-23T12:27:01.492Z,14.57
2022-12-23T12:29:31.475Z,14.20
2022-12-23T12:32:00.375Z,14.78
2022-12-23T12:34:49.583Z,15.45
2022-12-23T12:37:51.570Z,15.79
2022-12-23T12:40:32.853Z,15.81
2022-12-23T12:43:25.002Z,15.88
2022-12-23T12:45:59.786Z,16.18
2022-12-23T12:48:49.621Z,15.68
2022-12-23T12:51:50.399Z,14.68
2022-12-23T12:54:25.967Z,14.33
2022-12-23T12:56:56.193Z,15.14
2022-12-23T12:59:38.144Z,15.65
2022-12-23T13:02:21.879Z,15.99
2022-12-23T13:05:09.404Z,16.35
2022-12-23T13:07:50.945Z,15.52
2022-12-23T13:10:46.857Z,14.57
2022-12-23T13:13:49.927Z,15.10
2022-12-23T13:17:05.182Z,15.84
2022-12-23T13:20:10.723Z,15.51
2022-12-23T13:22:39.328Z,14.45
2022-12-23T13:25:17.896Z,14.46
2022-12-23T13:28:26.806Z,15.35
2022-12-23T13:31:10.140Z,16.08
2022-12-23T13:33:46.769Z,15.88
2022-12-23T13:36:31.281Z,15.01
2022-12-23T13:39:12.751Z,14.25
2022-12-23T13:41:44.088Z,13.99
2022-12-23T13:44:13.639Z,14.87
2022-12-23T13:47:15.891Z,15.82
2022-12-23T13:49:56.266Z,16.28
2022-12-23T13:52:56.497Z,15.45
2022-12-23T13:55:42.866Z,14.52
2022-12-23T13:58:16.682Z,13.89
2022-12-23T14:00:44.880Z,13.98
2022-12-23T14:03:23.057Z,15.14
2022-12-23T14:05:52.666Z,15.88
2022-12-23T14:08:20.480Z,15.83
2022-12-23T14:10:54.995Z,15.08
2022-12-23T14:13:24.951Z,14.22
2022-12-23T14:16:01.962Z,14.03
2022-12-23T14:18:36.557Z,14.89
2022-12-23T14:21:04.624Z,15.44
2022-12-23T14:24:08.978Z,15.81
2022-12-23T14:26:44.421Z,16.00
2022-12-23T14:29:24.829Z,15.49
2022-12-23T14:31:57.197Z,14.62
2022-12-23T14:34:32.933Z,14.21
2022-12-23T14:37:25.173Z,14.97
2022-12-23T14:39:53.633Z,15.77
2022-12-23T14:42:40.334Z,16.25
2022-12-23T14:45:33.263Z,16.30
2022-12-23T14:48:02.311Z,15.37
2022-12-23T14:50:33.361Z,14.50
2022-12-23T14:53:20.596Z,14.77
2022-12-23T14:55:50.239Z,15.58
2022-12-23T14:58:17.942Z,15.98
2022-12-23T15:01:09.929Z,15.54
2022-12-23T15:03:44.863Z,14.46
2022-12-23T15:06:35.758Z,13.98
2022-12-23T15:09:05.445Z,14.87
2022-12-23T15:11:35.279Z,15.65
2022-12-23T15:14:09.451Z,16.33
2022-12-23T15:16:39.785Z,16.16
2022-12-23T15:19:27.932Z,15.18
2022-12-23T15:22:19.900Z,14.25
2022-12-23T15:24:51.665Z,13.93
2022-12-23T15:27:29.573Z,14.78
2022-12-23T15:29:58.389Z,15.72
2022-12-23T15:32:26.846Z,16.10
2022-12-23T15:35:06.503Z,15.48
2022-12-23T15:37:34.911Z,14.47
2022-12-23T15:40:12.077Z,14.06
2022-12-23T15:42:48.812Z,14.99
2022-12-23T15:45:40.716Z,15.85
2022-12-23T15:48:27.623Z,16.27
2022-12-23T15:51:08.240Z,15.47
2022-12-23T15:53:38.361Z,14.71
2022-12-23T15:56:17.613Z,14.18
2022-12-23T15:58:45.772Z,14.16
2022-12-23T16:01:17.881Z,15.28
2022-12-23T16:03:52.868Z,16.20
2022-12-23T16:06:29.829Z,16.56
2022-12-23T16:09:04.709Z,15.81
2022-12-23T16:11:47.971Z,14.94
2022-12-23T16:14:31.161Z,14.22
2022-12-23T16:17:01.228Z,14.06
2022-12-23T16:19:52.803Z,15.10
2022-12-23T16:22:20.597Z,16.01
2022-12-23T16:25:08.053Z,16.22
2022-12-23T16:27:50.636Z,15.47
2022-12-23T16:30:26.611Z,14.63
2022-12-23T16:32:56.636Z,14.33
2022-12-23T16:35:32.296Z,15.36
2022-12-23T16:38:16.752Z,16.29
2022-12-23T16:40:46.694Z,16.47
2022-12-23T16:43:15.035Z,15.65
2022-12-23T16:45:43.850Z,14.86
2022-12-23T16:48:25.393Z,14.27
2022-12-23T16:50:53.829Z,13.81
2022-12-23T16:53:21.587Z,13.77
2022-12-23T16:55:56.636Z,14.89
2022-12-23T16:58:28.671Z,16.00
2022-12-23T17:00:56.536Z,16.45
2022-12-23T17:03:24.372Z,15.85
2022-12-23T17:05:52.062Z,15.11
2022-12-23T17:08:20.678Z,14.55
2022-12-23T17:10:48.498Z,14.14
2022-12-23T17:13:18.251Z,13.78
2022-12-23T17:15:46.010Z,13.77
2022-12-23T17:18:16.578Z,14.86
2022-12-23T17:20:45.638Z,15.92
2022-12-23T17:23:32.554Z,16.42
2022-12-23T17:26:00.690Z,15.74
2022-12-23T17:28:31.927Z,14.99
2022-12-23T17:31:00.012Z,14.41
2022-12-23T17:33:30.290Z,13.95
2022-12-23T17:35:58.486Z,13.87
2022-12-23T17:38:29.028Z,14.94
2022-12-23T17:40:58.584Z,16.02
2022-12-23T17:43:26.753Z,16.42
2022-12-23T17:45:54.637Z,15.79
2022-12-23T17:48:26.656Z,15.05
2022-12-23T17:50:59.087Z,14.45
2022-12-23T17:53:26.953Z,14.00
2022-12-23T17:55:56.903Z,13.63
2022-12-23T17:58:27.836Z,13.61
2022-12-23T18:00:56.301Z,14.66
2022-12-23T18:03:25.054Z,15.64
2022-12-23T18:05:59.365Z,16.31
2022-12-23T18:08:30.027Z,16.41
2022-12-23T18:10:58.502Z,15.62
2022-12-23T18:13:26.452Z,14.91
2022-12-23T18:15:54.187Z,14.38
2022-12-23T18:18:32.151Z,13.98
2022-12-23T18:21:06.615Z,13.61
2022-12-23T18:23:37.364Z,13.64
2022-12-23T18:26:07.097Z,14.88
2022-12-23T18:28:35.531Z,16.07
2022-12-23T18:31:03.462Z,16.55
2022-12-23T18:33:31.721Z,15.88
2022-12-23T18:35:59.500Z,15.09
2022-12-23T18:38:27.299Z,14.51
2022-12-23T18:40:56.606Z,14.06
2022-12-23T18:43:25.378Z,13.67
2022-12-23T18:45:54.102Z,13.35
2022-12-23T18:48:22.177Z,13.39
2022-12-23T18:50:50.000Z,14.69
2022-12-23T18:53:25.308Z,15.87
2022-12-23T18:55:54.594Z,16.29
2022-12-23T18:58:23.310Z,15.58
2022-12-23T19:00:52.860Z,14.81
2022-12-23T19:03:24.814Z,14.22
2022-12-23T19:05:53.148Z,13.76
2022-12-23T19:08:26.740Z,13.41
2022-12-23T19:10:55.850Z,13.44
2022-12-23T19:13:23.852Z,14.67
2022-12-23T19:15:52.427Z,15.77
2022-12-23T19:18:21.806Z,16.18
2022-12-23T19:20:49.878Z,15.53
2022-12-23T19:23:18.241Z,14.77
2022-12-23T19:25:54.388Z,14.14
2022-12-23T19:28:22.809Z,13.64
2022-12-23T19:30:50.897Z,13.61
2022-12-23T19:33:18.924Z,14.71
2022-12-23T19:35:46.764Z,15.84
2022-12-23T19:38:14.550Z,16.34
2022-12-23T19:40:42.549Z,15.69
2022-12-23T19:43:10.281Z,14.89
2022-12-23T19:45:38.045Z,14.29
2022-12-23T19:48:05.946Z,13.84
2022-12-23T19:50:33.858Z,13.50
2022-12-23T19:53:01.754Z,13.46
2022-12-23T19:55:29.622Z,14.52
2022-12-23T19:57:57.607Z,15.73
2022-12-23T20:00:25.735Z,16.34
2022-12-23T20:02:58.725Z,15.71
2022-12-23T20:05:27.146Z,14.90
2022-12-23T20:07:55.001Z,14.33
2022-12-23T20:10:22.754Z,13.89
2022-12-23T20:12:50.648Z,13.54
2022-12-23T20:15:18.578Z,13.23
2022-12-23T20:17:46.325Z,13.29
2022-12-23T20:20:14.200Z,14.48
2022-12-23T20:22:42.011Z,15.58
2022-12-23T20:25:09.970Z,16.06
2022-12-23T20:27:38.912Z,15.43
2022-12-23T20:30:07.322Z,14.67
2022-12-23T20:32:35.127Z,14.03
2022-12-23T20:35:02.951Z,13.58
2022-12-23T20:37:30.922Z,13.24
2022-12-23T20:39:58.692Z,12.95
2022-12-23T20:42:28.032Z,12.97
2022-12-23T20:44:55.785Z,14.10
2022-12-23T20:47:23.512Z,15.18
2022-12-23T20:49:51.456Z,15.61
2022-12-23T20:52:19.279Z,15.01
2022-12-23T20:54:47.014Z,14.31
2022-12-23T20:57:14.897Z,13.78
2022-12-23T20:59:42.863Z,13.35
2022-12-23T21:02:13.224Z,13.26
2022-12-23T21:04:41.383Z,14.27
2022-12-23T21:07:09.393Z,15.38
2022-12-23T21:09:37.217Z,15.86
2022-12-23T21:12:05.829Z,15.23
2022-12-23T21:14:33.723Z,14.49
2022-12-23T21:17:01.478Z,13.90
2022-12-23T21:19:30.413Z,13.47
2022-12-23T21:21:58.228Z,13.11
2022-12-23T21:24:26.117Z,13.10
2022-12-23T21:26:56.901Z,14.24
2022-12-23T21:29:25.723Z,15.35
2022-12-23T21:31:55.117Z,15.75
2022-12-23T21:34:23.353Z,15.10
2022-12-23T21:36:51.174Z,14.34
2022-12-23T21:39:19.939Z,13.75
2022-12-23T21:41:50.923Z,13.32
2022-12-23T21:44:18.739Z,13.29
2022-12-23T21:46:46.494Z,14.36
2022-12-23T21:49:14.495Z,15.35
2022-12-23T21:51:42.396Z,15.76
2022-12-23T21:54:11.379Z,15.12
2022-12-23T21:56:39.840Z,14.36
2022-12-23T21:59:12.834Z,13.78
2022-12-23T22:01:41.927Z,13.32
2022-12-23T22:04:10.200Z,12.94
2022-12-23T22:06:41.069Z,12.95
2022-12-23T22:09:11.243Z,14.06
2022-12-23T22:11:39.255Z,15.06
2022-12-23T22:14:08.435Z,15.52
2022-12-23T22:16:36.555Z,14.92
2022-12-23T22:19:06.370Z,14.15
2022-12-23T22:21:34.858Z,13.54
2022-12-23T22:24:03.346Z,13.10
2022-12-23T22:26:32.299Z,12.75
2022-12-23T22:29:02.376Z,12.77
2022-12-23T22:31:43.005Z,13.81
2022-12-23T22:34:19.435Z,14.88
2022-12-23T22:36:47.482Z,15.30
2022-12-23T22:39:20.634Z,14.70
2022-12-23T22:41:50.624Z,14.00
2022-12-23T22:44:19.423Z,13.47
2022-12-23T22:46:47.280Z,13.08
2022-12-23T22:49:15.748Z,13.03
2022-12-23T22:51:43.841Z,13.94
2022-12-23T22:54:11.922Z,14.88
2022-12-23T22:56:39.690Z,15.33
2022-12-23T22:59:07.531Z,14.85
2022-12-23T23:01:36.345Z,14.15
2022-12-23T23:04:04.980Z,13.60
2022-12-23T23:06:34.988Z,13.19
2022-12-23T23:09:03.082Z,12.87
2022-12-23T23:11:30.988Z,12.86
2022-12-23T23:13:58.765Z,14.03
2022-12-23T23:16:27.027Z,15.14
2022-12-23T23:18:54.846Z,15.68
2022-12-23T23:21:22.642Z,15.09
2022-12-23T23:23:50.721Z,14.33
2022-12-23T23:26:19.513Z,13.77
2022-12-23T23:28:48.060Z,13.35
2022-12-23T23:34:03.919Z,13.06
2022-12-23T23:36:31.837Z,14.11
2022-12-23T23:38:59.580Z,15.26
2022-12-23T23:41:27.458Z,15.79
2022-12-23T23:43:55.348Z,15.18
2022-12-23T23:46:23.317Z,14.43
2022-12-23T23:48:51.143Z,13.85
2022-12-23T23:51:19.251Z,13.41
2022-12-23T23:53:47.318Z,13.06
2022-12-23T23:56:21.935Z,12.99
2022-12-23T23:58:53.002Z,13.90
